createdAt,value
2017-05-13T00:01:04.496Z,2.25
2017-05-13T00:03:32.790Z,2.68
2017-05-13T00:06:01.123Z,1.93
2017-05-13T00:08:29.414Z,1.72
2017-05-13T00:10:57.715Z,2.05
2017-05-13T00:13:26.054Z,1.98
2017-05-13T00:15:55.095Z,1.88
2017-05-13T00:18:23.389Z,2.40
2017-05-13T00:20:51.718Z,1.97
2017-05-13T00:23:20.029Z,2.45
2017-05-13T00:25:48.331Z,2.32
2017-05-13T00:28:16.666Z,2.25
2017-05-13T00:30:44.971Z,1.75
2017-05-13T00:33:13.265Z,2.12
2017-05-13T00:35:41.598Z,2.10
2017-05-13T00:38:09.893Z,1.90
2017-05-13T00:40:38.183Z,2.30
2017-05-13T00:43:06.500Z,2.00
2017-05-13T00:45:35.534Z,1.53
2017-05-13T00:48:03.825Z,1.73
2017-05-13T00:50:32.151Z,1.75
2017-05-13T00:53:00.443Z,1.93
2017-05-13T00:55:29.480Z,1.87
2017-05-13T00:57:57.805Z,1.72
2017-05-13T01:00:26.843Z,1.67
2017-05-13T01:02:55.150Z,1.55
2017-05-13T01:05:23.478Z,1.87
2017-05-13T01:07:51.778Z,1.95
2017-05-13T01:10:20.062Z,1.68
2017-05-13T01:12:48.406Z,1.85
2017-05-13T01:15:16.698Z,1.55
2017-05-13T01:17:44.995Z,1.70
2017-05-13T01:20:13.356Z,1.73
2017-05-13T01:22:41.652Z,1.38
2017-05-13T01:25:09.951Z,1.43
2017-05-13T01:27:38.286Z,1.40
2017-05-13T01:30:06.588Z,1.58
2017-05-13T01:32:34.892Z,1.15
2017-05-13T01:35:03.222Z,1.70
2017-05-13T01:37:31.516Z,1.65
2017-05-13T01:39:59.819Z,1.60
2017-05-13T01:42:28.150Z,1.60
2017-05-13T01:44:57.196Z,1.77
2017-05-13T01:47:25.498Z,1.80
2017-05-13T01:49:53.830Z,1.12
2017-05-13T01:52:22.133Z,1.80
2017-05-13T01:54:50.417Z,1.45
2017-05-13T01:57:18.758Z,1.88
2017-05-13T01:59:47.050Z,1.58
2017-05-13T02:02:15.351Z,1.70
2017-05-13T02:04:43.680Z,2.03
2017-05-13T02:07:11.983Z,1.70
2017-05-13T02:09:40.269Z,1.63
2017-05-13T02:12:08.598Z,1.85
2017-05-13T02:14:37.635Z,1.65
2017-05-13T02:17:05.921Z,1.50
2017-05-13T02:19:34.245Z,1.60
2017-05-13T02:22:03.285Z,1.60
2017-05-13T02:24:31.581Z,2.10
2017-05-13T02:26:59.931Z,1.92
2017-05-13T02:29:28.227Z,2.07
2017-05-13T02:31:56.510Z,1.97
2017-05-13T02:34:24.827Z,1.85
2017-05-13T02:36:53.866Z,1.73
2017-05-13T02:39:22.158Z,1.75
2017-05-13T02:41:50.486Z,1.72
2017-05-13T02:44:19.528Z,1.80
2017-05-13T02:46:47.822Z,2.87
2017-05-13T02:49:16.149Z,1.58
2017-05-13T02:51:45.179Z,2.32
2017-05-13T02:54:13.482Z,2.30
2017-05-13T02:56:41.819Z,2.00
2017-05-13T02:59:10.123Z,2.02
2017-05-13T03:01:38.414Z,1.90
2017-05-13T03:04:06.729Z,2.08
2017-05-13T03:06:35.772Z,2.00
2017-05-13T03:09:04.069Z,2.07
2017-05-13T03:11:32.386Z,2.02
2017-05-13T03:14:01.443Z,2.22
2017-05-13T03:16:29.726Z,2.25
2017-05-13T03:18:58.055Z,1.85
2017-05-13T03:21:26.344Z,1.83
2017-05-13T03:23:54.629Z,2.30
2017-05-13T03:26:22.950Z,2.07
2017-05-13T03:28:51.262Z,1.85
2017-05-13T03:31:19.553Z,1.82
2017-05-13T03:33:47.882Z,2.35
2017-05-13T03:36:16.166Z,2.28
2017-05-13T03:38:44.482Z,2.12
2017-05-13T03:41:12.795Z,2.10
2017-05-13T03:43:41.099Z,2.20
2017-05-13T03:46:09.391Z,2.43
2017-05-13T03:48:38.482Z,2.42
2017-05-13T03:51:06.770Z,2.32
2017-05-13T03:53:35.807Z,2.72
2017-05-13T03:56:04.132Z,2.20
2017-05-13T03:58:32.442Z,3.10
2017-05-13T04:01:00.733Z,2.43
2017-05-13T04:03:29.062Z,2.40
2017-05-13T04:05:57.366Z,2.25
2017-05-13T04:08:26.399Z,2.32
2017-05-13T04:10:54.731Z,3.15
2017-05-13T04:13:23.762Z,2.55
2017-05-13T04:15:52.067Z,2.23
2017-05-13T04:18:20.399Z,2.62
2017-05-13T04:20:48.703Z,2.85
2017-05-13T04:23:16.999Z,2.18
2017-05-13T04:25:45.325Z,2.83
2017-05-13T04:28:14.363Z,2.43
2017-05-13T04:30:42.671Z,2.32
2017-05-13T04:33:11.021Z,2.77
2017-05-13T04:35:39.321Z,2.27
2017-05-13T04:38:11.275Z,2.75
2017-05-13T04:40:39.566Z,2.67
2017-05-13T04:43:07.868Z,2.57
2017-05-13T04:45:36.181Z,2.67
2017-05-13T04:48:04.514Z,2.90
2017-05-13T04:50:32.935Z,3.27
2017-05-13T04:53:01.229Z,2.92
2017-05-13T04:55:29.540Z,2.50
2017-05-13T04:57:57.827Z,2.90
2017-05-13T21:06:48.162Z,2.68
2017-05-13T21:09:16.457Z,2.42
2017-05-13T21:11:45.489Z,2.50
2017-05-13T21:14:13.914Z,2.73
2017-05-13T21:16:42.417Z,2.90
2017-05-13T21:19:10.830Z,3.28
2017-05-13T21:21:39.247Z,2.97
2017-05-13T21:24:08.428Z,2.82
2017-05-13T21:26:36.729Z,2.72
2017-05-13T21:29:05.014Z,2.48
2017-05-13T21:31:33.346Z,2.58
2017-05-13T21:34:01.635Z,2.58
2017-05-13T21:36:29.917Z,2.28
2017-05-13T21:38:58.242Z,2.78
2017-05-13T21:41:27.282Z,2.88
2017-05-13T21:43:55.571Z,2.50
2017-05-13T21:46:23.885Z,2.95
2017-05-13T21:48:52.181Z,3.05
2017-05-13T21:51:21.207Z,2.92
2017-05-13T21:53:49.533Z,2.48
2017-05-13T21:56:17.822Z,2.78
2017-05-13T21:58:46.857Z,2.72
2017-05-13T22:01:15.185Z,2.70
2017-05-13T22:03:43.478Z,3.15
2017-05-13T22:06:12.525Z,2.40
2017-05-13T22:08:40.882Z,2.42
2017-05-13T22:11:09.166Z,2.38
2017-05-13T22:13:37.446Z,2.52
2017-05-13T22:16:06.727Z,3.23
2017-05-13T22:18:35.013Z,2.72
2017-05-13T22:21:03.342Z,2.93
2017-05-13T22:23:31.663Z,2.97
2017-05-13T22:25:59.958Z,3.20
2017-05-13T22:28:28.256Z,3.00
2017-05-13T22:30:56.605Z,2.63
2017-05-13T22:33:24.886Z,2.42
2017-05-13T22:35:53.169Z,3.05
2017-05-13T22:38:21.481Z,2.50
2017-05-13T22:40:49.771Z,2.55
2017-05-13T22:43:18.053Z,2.88
2017-05-13T22:45:46.381Z,3.07
2017-05-13T22:48:14.662Z,3.10
2017-05-13T22:50:42.943Z,2.63
2017-05-13T22:53:11.249Z,2.42
2017-05-13T22:55:39.554Z,3.02
2017-05-13T22:58:07.938Z,3.37
2017-05-13T23:00:37.015Z,2.60
2017-05-13T23:03:05.296Z,3.12
2017-05-13T23:05:33.574Z,3.03
2017-05-13T23:08:01.901Z,2.97
2017-05-13T23:10:30.182Z,2.92
2017-05-13T23:12:58.482Z,2.77
2017-05-13T23:15:26.822Z,2.88
2017-05-13T23:17:55.117Z,2.85
2017-05-13T23:20:23.397Z,3.03
2017-05-13T23:22:51.706Z,2.80
2017-05-13T23:25:20.021Z,2.97
2017-05-13T23:27:48.310Z,2.60
2017-05-13T23:30:17.368Z,2.75
2017-05-13T23:32:45.647Z,2.80
2017-05-13T23:35:13.942Z,2.93
2017-05-13T23:37:42.274Z,2.58
2017-05-13T23:40:10.561Z,2.88
2017-05-13T23:42:39.048Z,2.78
2017-05-13T23:45:07.420Z,2.70
2017-05-13T23:47:35.718Z,2.87
2017-05-13T23:50:04.004Z,2.80
2017-05-13T23:52:32.357Z,2.83
2017-05-13T23:55:00.652Z,2.70
2017-05-13T23:57:28.933Z,2.75
2017-05-13T23:59:57.255Z,2.45
